sensor_id;sensor_type;location;lat;lon;timestamp;P1;durP1;ratioP1;P2;durP2;ratioP2
10497;SDS011;5296;51.060;13.750;2023-12-20T00:02:39;2.63;;;2.42;;
10497;SDS011;5296;51.060;13.750;2023-12-20T00:07:40;2.72;;;2.47;;
10497;SDS011;5296;51.060;13.750;2023-12-20T00:12:42;2.78;;;2.47;;
10497;SDS011;5296;51.060;13.750;2023-12-20T00:17:44;2.38;;;2.17;;
10497;SDS011;5296;51.060;13.750;2023-12-20T00:22:46;2.15;;;1.98;;
10497;SDS011;5296;51.060;13.750;2023-12-20T00:27:48;2.38;;;2.17;;
10497;SDS011;5296;51.060;13.750;2023-12-20T00:32:50;2.10;;;2.00;;
10497;SDS011;5296;51.060;13.750;2023-12-20T00:37:52;1.60;;;1.50;;
10497;SDS011;5296;51.060;13.750;2023-12-20T00:42:53;1.75;;;1.65;;
10497;SDS011;5296;51.060;13.750;2023-12-20T00:47:55;1.63;;;1.52;;
10497;SDS011;5296;51.060;13.750;2023-12-20T00:52:57;1.75;;;1.65;;
10497;SDS011;5296;51.060;13.750;2023-12-20T00:57:59;1.80;;;1.70;;
10497;SDS011;5296;51.060;13.750;2023-12-20T01:03:01;1.50;;;1.40;;
10497;SDS011;5296;51.060;13.750;2023-12-20T01:08:03;1.60;;;1.50;;
10497;SDS011;5296;51.060;13.750;2023-12-20T01:13:05;1.58;;;1.48;;
10497;SDS011;5296;51.060;13.750;2023-12-20T01:18:07;1.40;;;1.30;;
10497;SDS011;5296;51.060;13.750;2023-12-20T01:23:09;1.63;;;1.40;;
10497;SDS011;5296;51.060;13.750;2023-12-20T01:28:10;1.30;;;1.20;;
10497;SDS011;5296;51.060;13.750;2023-12-20T01:33:12;1.60;;;1.50;;
10497;SDS011;5296;51.060;13.750;2023-12-20T01:38:14;1.67;;;1.30;;
10497;SDS011;5296;51.060;13.750;2023-12-20T01:43:15;3.03;;;1.20;;
10497;SDS011;5296;51.060;13.750;2023-12-20T01:48:18;1.10;;;1.10;;
10497;SDS011;5296;51.060;13.750;2023-12-20T01:53:21;1.23;;;1.13;;
10497;SDS011;5296;51.060;13.750;2023-12-20T01:58:25;1.30;;;1.20;;
10497;SDS011;5296;51.060;13.750;2023-12-20T02:03:27;1.00;;;1.00;;
10497;SDS011;5296;51.060;13.750;2023-12-20T02:08:30;1.23;;;1.13;;
10497;SDS011;5296;51.060;13.750;2023-12-20T02:13:31;1.05;;;1.05;;
10497;SDS011;5296;51.060;13.750;2023-12-20T02:18:33;0.95;;;0.95;;
10497;SDS011;5296;51.060;13.750;2023-12-20T02:23:35;0.80;;;0.80;;
10497;SDS011;5296;51.060;13.750;2023-12-20T02:28:37;1.48;;;1.10;;
10497;SDS011;5296;51.060;13.750;2023-12-20T02:33:39;1.48;;;0.90;;
10497;SDS011;5296;51.060;13.750;2023-12-20T02:38:41;0.93;;;0.90;;
10497;SDS011;5296;51.060;13.750;2023-12-20T02:43:42;0.90;;;0.90;;
10497;SDS011;5296;51.060;13.750;2023-12-20T02:48:44;0.82;;;0.82;;
10497;SDS011;5296;51.060;13.750;2023-12-20T02:53:46;0.93;;;0.93;;
10497;SDS011;5296;51.060;13.750;2023-12-20T02:58:48;0.80;;;0.80;;
10497;SDS011;5296;51.060;13.750;2023-12-20T03:03:49;0.88;;;0.88;;
10497;SDS011;5296;51.060;13.750;2023-12-20T03:08:51;0.80;;;0.80;;
10497;SDS011;5296;51.060;13.750;2023-12-20T03:13:53;1.10;;;1.00;;
10497;SDS011;5296;51.060;13.750;2023-12-20T03:18:55;0.80;;;0.80;;
10497;SDS011;5296;51.060;13.750;2023-12-20T03:23:57;0.70;;;0.70;;
10497;SDS011;5296;51.060;13.750;2023-12-20T03:28:59;0.73;;;0.70;;
10497;SDS011;5296;51.060;13.750;2023-12-20T03:34:00;0.70;;;0.70;;
10497;SDS011;5296;51.060;13.750;2023-12-20T03:39:02;0.80;;;0.80;;
10497;SDS011;5296;51.060;13.750;2023-12-20T03:44:04;0.90;;;0.90;;
10497;SDS011;5296;51.060;13.750;2023-12-20T03:49:06;0.80;;;0.80;;
10497;SDS011;5296;51.060;13.750;2023-12-20T03:54:07;0.80;;;0.80;;
10497;SDS011;5296;51.060;13.750;2023-12-20T03:59:09;0.73;;;0.73;;
10497;SDS011;5296;51.060;13.750;2023-12-20T04:04:11;0.70;;;0.70;;
10497;SDS011;5296;51.060;13.750;2023-12-20T04:09:13;0.80;;;0.80;;
10497;SDS011;5296;51.060;13.750;2023-12-20T04:14:14;0.70;;;0.70;;
10497;SDS011;5296;51.060;13.750;2023-12-20T04:19:16;1.20;;;0.80;;
10497;SDS011;5296;51.060;13.750;2023-12-20T04:24:18;0.60;;;0.60;;
10497;SDS011;5296;51.060;13.750;2023-12-20T04:29:21;0.80;;;0.80;;
10497;SDS011;5296;51.060;13.750;2023-12-20T04:34:23;0.80;;;0.80;;
10497;SDS011;5296;51.060;13.750;2023-12-20T04:39:25;0.70;;;0.70;;
10497;SDS011;5296;51.060;13.750;2023-12-20T04:44:26;0.73;;;0.73;;
10497;SDS011;5296;51.060;13.750;2023-12-20T04:49:28;0.70;;;0.70;;
10497;SDS011;5296;51.060;13.750;2023-12-20T04:54:30;0.80;;;0.80;;
10497;SDS011;5296;51.060;13.750;2023-12-20T04:59:32;0.80;;;0.80;;
10497;SDS011;5296;51.060;13.750;2023-12-20T05:04:33;0.70;;;0.70;;
10497;SDS011;5296;51.060;13.750;2023-12-20T05:09:35;1.05;;;0.98;;
10497;SDS011;5296;51.060;13.750;2023-12-20T05:14:37;0.80;;;0.80;;
10497;SDS011;5296;51.060;13.750;2023-12-20T05:19:38;0.75;;;0.75;;
10497;SDS011;5296;51.060;13.750;2023-12-20T05:24:40;1.20;;;0.90;;
10497;SDS011;5296;51.060;13.750;2023-12-20T05:29:42;0.80;;;0.80;;
10497;SDS011;5296;51.060;13.750;2023-12-20T05:34:44;0.65;;;0.65;;
10497;SDS011;5296;51.060;13.750;2023-12-20T05:39:46;1.73;;;0.73;;
10497;SDS011;5296;51.060;13.750;2023-12-20T05:44:47;0.60;;;0.60;;
10497;SDS011;5296;51.060;13.750;2023-12-20T05:49:52;0.60;;;0.60;;
10497;SDS011;5296;51.060;13.750;2023-12-20T05:54:54;0.65;;;0.55;;
10497;SDS011;5296;51.060;13.750;2023-12-20T05:59:58;0.60;;;0.60;;
10497;SDS011;5296;51.060;13.750;2023-12-20T06:04:59;0.80;;;0.70;;
10497;SDS011;5296;51.060;13.750;2023-12-20T06:10:01;0.68;;;0.68;;
10497;SDS011;5296;51.060;13.750;2023-12-20T06:15:03;0.68;;;0.68;;
10497;SDS011;5296;51.060;13.750;2023-12-20T06:20:06;0.60;;;0.60;;
10497;SDS011;5296;51.060;13.750;2023-12-20T06:25:09;0.90;;;0.77;;
10497;SDS011;5296;51.060;13.750;2023-12-20T06:30:11;0.75;;;0.75;;
10497;SDS011;5296;51.060;13.750;2023-12-20T06:35:13;1.05;;;0.98;;
10497;SDS011;5296;51.060;13.750;2023-12-20T06:40:15;1.30;;;1.00;;
10497;SDS011;5296;51.060;13.750;2023-12-20T06:45:19;1.00;;;1.00;;
10497;SDS011;5296;51.060;13.750;2023-12-20T06:50:21;1.23;;;0.90;;
10497;SDS011;5296;51.060;13.750;2023-12-20T06:55:22;1.33;;;1.10;;
10497;SDS011;5296;51.060;13.750;2023-12-20T07:00:24;1.30;;;1.20;;
10497;SDS011;5296;51.060;13.750;2023-12-20T07:05:26;4.20;;;1.70;;
10497;SDS011;5296;51.060;13.750;2023-12-20T07:10:28;1.77;;;1.48;;
10497;SDS011;5296;51.060;13.750;2023-12-20T07:15:30;2.13;;;1.40;;
10497;SDS011;5296;51.060;13.750;2023-12-20T07:20:31;1.48;;;1.38;;
10497;SDS011;5296;51.060;13.750;2023-12-20T07:25:33;1.30;;;1.20;;
10497;SDS011;5296;51.060;13.750;2023-12-20T07:30:35;1.50;;;1.40;;
10497;SDS011;5296;51.060;13.750;2023-12-20T07:35:37;1.55;;;1.45;;
10497;SDS011;5296;51.060;13.750;2023-12-20T07:40:39;2.08;;;1.30;;
10497;SDS011;5296;51.060;13.750;2023-12-20T07:45:40;1.65;;;1.55;;
10497;SDS011;5296;51.060;13.750;2023-12-20T07:50:42;1.20;;;1.20;;
10497;SDS011;5296;51.060;13.750;2023-12-20T07:55:44;1.58;;;1.45;;
10497;SDS011;5296;51.060;13.750;2023-12-20T08:00:46;2.00;;;1.52;;
10497;SDS011;5296;51.060;13.750;2023-12-20T08:05:48;1.83;;;1.67;;
10497;SDS011;5296;51.060;13.750;2023-12-20T08:10:49;3.33;;;2.00;;
10497;SDS011;5296;51.060;13.750;2023-12-20T08:15:54;2.50;;;1.75;;
10497;SDS011;5296;51.060;13.750;2023-12-20T08:20:57;2.08;;;1.85;;
10497;SDS011;5296;51.060;13.750;2023-12-20T08:25:58;1.50;;;1.40;;
10497;SDS011;5296;51.060;13.750;2023-12-20T08:31:05;2.70;;;1.80;;
10497;SDS011;5296;51.060;13.750;2023-12-20T08:36:07;3.15;;;1.70;;
10497;SDS011;5296;51.060;13.750;2023-12-20T08:41:09;1.70;;;1.60;;
10497;SDS011;5296;51.060;13.750;2023-12-20T08:46:10;2.60;;;1.50;;
10497;SDS011;5296;51.060;13.750;2023-12-20T08:51:13;2.15;;;1.65;;
10497;SDS011;5296;51.060;13.750;2023-12-20T08:56:15;2.25;;;1.58;;
10497;SDS011;5296;51.060;13.750;2023-12-20T09:01:17;1.40;;;1.30;;
10497;SDS011;5296;51.060;13.750;2023-12-20T09:06:19;2.70;;;1.40;;
10497;SDS011;5296;51.060;13.750;2023-12-20T09:11:20;3.03;;;1.98;;
10497;SDS011;5296;51.060;13.750;2023-12-20T09:16:22;2.90;;;1.33;;
10497;SDS011;5296;51.060;13.750;2023-12-20T09:21:24;2.17;;;1.13;;
10497;SDS011;5296;51.060;13.750;2023-12-20T09:26:27;1.13;;;1.08;;
10497;SDS011;5296;51.060;13.750;2023-12-20T09:31:28;2.90;;;1.40;;
10497;SDS011;5296;51.060;13.750;2023-12-20T09:36:30;1.85;;;1.15;;
10497;SDS011;5296;51.060;13.750;2023-12-20T09:41:37;2.05;;;1.20;;
10497;SDS011;5296;51.060;13.750;2023-12-20T09:46:39;2.40;;;1.50;;
10497;SDS011;5296;51.060;13.750;2023-12-20T09:51:45;1.83;;;1.40;;
10497;SDS011;5296;51.060;13.750;2023-12-20T09:56:48;4.03;;;1.45;;
10497;SDS011;5296;51.060;13.750;2023-12-20T10:01:50;2.55;;;1.70;;
10497;SDS011;5296;51.060;13.750;2023-12-20T10:06:56;1.23;;;1.13;;
10497;SDS011;5296;51.060;13.750;2023-12-20T10:11:59;2.72;;;1.60;;
10497;SDS011;5296;51.060;13.750;2023-12-20T10:17:04;2.53;;;1.27;;
10497;SDS011;5296;51.060;13.750;2023-12-20T10:22:07;1.83;;;1.48;;
10497;SDS011;5296;51.060;13.750;2023-12-20T10:27:09;2.60;;;1.40;;
10497;SDS011;5296;51.060;13.750;2023-12-20T10:32:23;1.77;;;1.30;;
10497;SDS011;5296;51.060;13.750;2023-12-20T10:37:26;2.50;;;1.35;;
10497;SDS011;5296;51.060;13.750;2023-12-20T10:42:28;3.53;;;1.48;;
10497;SDS011;5296;51.060;13.750;2023-12-20T10:47:31;2.47;;;1.58;;
10497;SDS011;5296;51.060;13.750;2023-12-20T10:52:33;1.60;;;1.50;;
10497;SDS011;5296;51.060;13.750;2023-12-20T10:57:36;3.67;;;1.52;;
10497;SDS011;5296;51.060;13.750;2023-12-20T11:02:39;5.68;;;1.50;;
10497;SDS011;5296;51.060;13.750;2023-12-20T11:08:01;3.08;;;1.65;;
10497;SDS011;5296;51.060;13.750;2023-12-20T11:13:20;1.65;;;1.52;;
10497;SDS011;5296;51.060;13.750;2023-12-20T11:18:28;4.65;;;1.45;;
10497;SDS011;5296;51.060;13.750;2023-12-20T11:23:31;3.78;;;1.60;;
10497;SDS011;5296;51.060;13.750;2023-12-20T11:28:35;2.17;;;1.45;;
10497;SDS011;5296;51.060;13.750;2023-12-20T11:33:37;4.68;;;1.77;;
10497;SDS011;5296;51.060;13.750;2023-12-20T11:38:55;1.50;;;1.40;;
10497;SDS011;5296;51.060;13.750;2023-12-20T11:43:59;2.20;;;1.55;;
10497;SDS011;5296;51.060;13.750;2023-12-20T11:49:02;2.13;;;1.33;;
10497;SDS011;5296;51.060;13.750;2023-12-20T11:54:04;3.35;;;1.70;;
10497;SDS011;5296;51.060;13.750;2023-12-20T11:59:07;2.63;;;1.70;;
10497;SDS011;5296;51.060;13.750;2023-12-20T12:04:23;3.13;;;1.75;;
10497;SDS011;5296;51.060;13.750;2023-12-20T12:09:24;2.42;;;1.65;;
10497;SDS011;5296;51.060;13.750;2023-12-20T12:14:26;3.08;;;2.05;;
10497;SDS011;5296;51.060;13.750;2023-12-20T12:19:28;4.57;;;2.55;;
10497;SDS011;5296;51.060;13.750;2023-12-20T12:24:31;3.65;;;2.33;;
10497;SDS011;5296;51.060;13.750;2023-12-20T12:29:33;2.45;;;1.65;;
10497;SDS011;5296;51.060;13.750;2023-12-20T12:34:35;3.60;;;2.30;;
10497;SDS011;5296;51.060;13.750;2023-12-20T12:39:38;1.98;;;1.50;;
10497;SDS011;5296;51.060;13.750;2023-12-20T12:44:40;2.85;;;1.70;;
10497;SDS011;5296;51.060;13.750;2023-12-20T12:49:42;3.47;;;1.52;;
10497;SDS011;5296;51.060;13.750;2023-12-20T12:54:44;3.10;;;1.60;;
10497;SDS011;5296;51.060;13.750;2023-12-20T12:59:46;3.50;;;1.63;;
10497;SDS011;5296;51.060;13.750;2023-12-20T13:04:48;1.77;;;1.50;;
10497;SDS011;5296;51.060;13.750;2023-12-20T13:09:50;3.58;;;1.70;;
10497;SDS011;5296;51.060;13.750;2023-12-20T13:14:51;3.58;;;1.45;;
10497;SDS011;5296;51.060;13.750;2023-12-20T13:19:54;2.40;;;1.58;;
10497;SDS011;5296;51.060;13.750;2023-12-20T13:24:56;4.43;;;1.90;;
10497;SDS011;5296;51.060;13.750;2023-12-20T13:29:58;2.55;;;1.70;;
10497;SDS011;5296;51.060;13.750;2023-12-20T13:35:00;4.68;;;1.70;;
10497;SDS011;5296;51.060;13.750;2023-12-20T13:40:02;2.53;;;1.33;;
10497;SDS011;5296;51.060;13.750;2023-12-20T13:45:06;6.03;;;1.67;;
10497;SDS011;5296;51.060;13.750;2023-12-20T13:50:09;3.13;;;1.50;;
10497;SDS011;5296;51.060;13.750;2023-12-20T13:55:11;2.75;;;1.55;;
10497;SDS011;5296;51.060;13.750;2023-12-20T14:00:13;3.17;;;1.40;;
10497;SDS011;5296;51.060;13.750;2023-12-20T14:05:16;3.80;;;1.48;;
10497;SDS011;5296;51.060;13.750;2023-12-20T14:10:19;6.38;;;1.85;;
10497;SDS011;5296;51.060;13.750;2023-12-20T14:15:21;3.28;;;1.30;;
10497;SDS011;5296;51.060;13.750;2023-12-20T14:20:26;2.78;;;1.50;;
10497;SDS011;5296;51.060;13.750;2023-12-20T14:25:28;2.78;;;1.27;;
10497;SDS011;5296;51.060;13.750;2023-12-20T14:30:36;3.22;;;1.40;;
10497;SDS011;5296;51.060;13.750;2023-12-20T14:35:39;2.40;;;1.15;;
10497;SDS011;5296;51.060;13.750;2023-12-20T14:40:45;2.60;;;1.35;;
10497;SDS011;5296;51.060;13.750;2023-12-20T14:45:47;2.65;;;1.23;;
10497;SDS011;5296;51.060;13.750;2023-12-20T14:50:48;2.15;;;1.25;;
10497;SDS011;5296;51.060;13.750;2023-12-20T14:55:51;4.45;;;1.45;;
10497;SDS011;5296;51.060;13.750;2023-12-20T15:00:53;2.63;;;1.50;;
10497;SDS011;5296;51.060;13.750;2023-12-20T15:05:55;4.55;;;1.55;;
10497;SDS011;5296;51.060;13.750;2023-12-20T15:11:00;1.77;;;1.38;;
10497;SDS011;5296;51.060;13.750;2023-12-20T15:16:03;2.00;;;1.33;;
10497;SDS011;5296;51.060;13.750;2023-12-20T15:21:05;3.17;;;1.42;;
10497;SDS011;5296;51.060;13.750;2023-12-20T15:26:07;2.70;;;1.33;;
10497;SDS011;5296;51.060;13.750;2023-12-20T15:31:09;2.30;;;1.50;;
10497;SDS011;5296;51.060;13.750;2023-12-20T15:36:11;2.63;;;1.17;;
10497;SDS011;5296;51.060;13.750;2023-12-20T15:41:19;2.75;;;1.40;;
10497;SDS011;5296;51.060;13.750;2023-12-20T15:46:21;1.42;;;1.20;;
10497;SDS011;5296;51.060;13.750;2023-12-20T15:51:23;2.50;;;1.58;;
10497;SDS011;5296;51.060;13.750;2023-12-20T15:56:26;2.95;;;1.27;;
10497;SDS011;5296;51.060;13.750;2023-12-20T16:01:28;3.38;;;1.42;;
10497;SDS011;5296;51.060;13.750;2023-12-20T16:06:30;1.80;;;1.50;;
10497;SDS011;5296;51.060;13.750;2023-12-20T16:11:32;2.35;;;1.73;;
10497;SDS011;5296;51.060;13.750;2023-12-20T16:16:34;3.35;;;1.52;;
10497;SDS011;5296;51.060;13.750;2023-12-20T16:21:36;3.30;;;1.45;;
10497;SDS011;5296;51.060;13.750;2023-12-20T16:26:38;1.75;;;1.33;;
10497;SDS011;5296;51.060;13.750;2023-12-20T16:31:40;3.92;;;1.63;;
10497;SDS011;5296;51.060;13.750;2023-12-20T16:36:49;1.77;;;1.40;;
10497;SDS011;5296;51.060;13.750;2023-12-20T16:41:55;3.25;;;1.70;;
10497;SDS011;5296;51.060;13.750;2023-12-20T16:46:57;2.25;;;1.60;;
10497;SDS011;5296;51.060;13.750;2023-12-20T16:51:59;4.35;;;1.52;;
10497;SDS011;5296;51.060;13.750;2023-12-20T16:57:04;2.38;;;1.45;;
10497;SDS011;5296;51.060;13.750;2023-12-20T17:02:06;3.13;;;1.33;;
10497;SDS011;5296;51.060;13.750;2023-12-20T17:07:08;2.72;;;1.55;;
10497;SDS011;5296;51.060;13.750;2023-12-20T17:12:10;5.85;;;2.10;;
10497;SDS011;5296;51.060;13.750;2023-12-20T17:17:11;3.45;;;1.98;;
10497;SDS011;5296;51.060;13.750;2023-12-20T17:22:13;2.55;;;1.60;;
10497;SDS011;5296;51.060;13.750;2023-12-20T17:27:15;3.15;;;1.80;;
10497;SDS011;5296;51.060;13.750;2023-12-20T17:32:16;4.10;;;1.80;;
10497;SDS011;5296;51.060;13.750;2023-12-20T17:37:18;2.92;;;1.70;;
10497;SDS011;5296;51.060;13.750;2023-12-20T17:42:20;3.03;;;1.58;;
10497;SDS011;5296;51.060;13.750;2023-12-20T17:47:21;5.40;;;2.00;;
10497;SDS011;5296;51.060;13.750;2023-12-20T17:52:24;3.50;;;1.70;;
10497;SDS011;5296;51.060;13.750;2023-12-20T17:57:26;3.42;;;1.85;;
10497;SDS011;5296;51.060;13.750;2023-12-20T18:02:28;3.70;;;1.70;;
10497;SDS011;5296;51.060;13.750;2023-12-20T18:07:30;2.50;;;1.80;;
10497;SDS011;5296;51.060;13.750;2023-12-20T18:12:31;3.47;;;2.13;;
10497;SDS011;5296;51.060;13.750;2023-12-20T18:17:33;4.15;;;1.80;;
10497;SDS011;5296;51.060;13.750;2023-12-20T18:22:35;5.63;;;2.70;;
10497;SDS011;5296;51.060;13.750;2023-12-20T18:27:37;3.85;;;2.00;;
10497;SDS011;5296;51.060;13.750;2023-12-20T18:32:38;4.43;;;2.25;;
10497;SDS011;5296;51.060;13.750;2023-12-20T18:37:40;4.45;;;2.47;;
10497;SDS011;5296;51.060;13.750;2023-12-20T18:42:42;5.28;;;2.30;;
10497;SDS011;5296;51.060;13.750;2023-12-20T18:47:44;4.22;;;2.38;;
10497;SDS011;5296;51.060;13.750;2023-12-20T18:52:47;5.72;;;2.38;;
10497;SDS011;5296;51.060;13.750;2023-12-20T18:57:48;3.63;;;2.58;;
10497;SDS011;5296;51.060;13.750;2023-12-20T19:02:50;4.82;;;2.30;;
10497;SDS011;5296;51.060;13.750;2023-12-20T19:07:52;4.70;;;2.28;;
10497;SDS011;5296;51.060;13.750;2023-12-20T19:12:55;3.03;;;2.72;;
10497;SDS011;5296;51.060;13.750;2023-12-20T19:17:56;3.78;;;2.60;;
10497;SDS011;5296;51.060;13.750;2023-12-20T19:22:58;3.78;;;3.00;;
10497;SDS011;5296;51.060;13.750;2023-12-20T19:28:00;3.85;;;2.75;;
10497;SDS011;5296;51.060;13.750;2023-12-20T19:33:02;2.67;;;2.40;;
10497;SDS011;5296;51.060;13.750;2023-12-20T19:38:03;2.30;;;2.08;;
10497;SDS011;5296;51.060;13.750;2023-12-20T19:43:05;4.47;;;2.53;;
10497;SDS011;5296;51.060;13.750;2023-12-20T19:48:09;3.75;;;2.63;;
10497;SDS011;5296;51.060;13.750;2023-12-20T19:53:11;3.85;;;2.50;;
10497;SDS011;5296;51.060;13.750;2023-12-20T19:58:13;3.00;;;2.38;;
10497;SDS011;5296;51.060;13.750;2023-12-20T20:03:15;3.47;;;2.30;;
10497;SDS011;5296;51.060;13.750;2023-12-20T20:08:16;4.32;;;2.80;;
10497;SDS011;5296;51.060;13.750;2023-12-20T20:13:18;5.45;;;2.75;;
10497;SDS011;5296;51.060;13.750;2023-12-20T20:18:20;5.00;;;2.50;;
10497;SDS011;5296;51.060;13.750;2023-12-20T20:23:22;6.65;;;2.60;;
10497;SDS011;5296;51.060;13.750;2023-12-20T20:28:23;3.95;;;2.47;;
10497;SDS011;5296;51.060;13.750;2023-12-20T20:33:29;2.80;;;1.92;;
10497;SDS011;5296;51.060;13.750;2023-12-20T20:38:31;4.78;;;2.17;;
10497;SDS011;5296;51.060;13.750;2023-12-20T20:43:33;2.10;;;1.50;;
10497;SDS011;5296;51.060;13.750;2023-12-20T20:48:35;2.50;;;1.40;;
10497;SDS011;5296;51.060;13.750;2023-12-20T20:53:51;1.00;;;1.00;;
10497;SDS011;5296;51.060;13.750;2023-12-20T20:59:08;1.15;;;1.00;;
10497;SDS011;5296;51.060;13.750;2023-12-20T21:04:10;1.35;;;1.25;;
10497;SDS011;5296;51.060;13.750;2023-12-20T21:09:12;1.00;;;1.00;;
10497;SDS011;5296;51.060;13.750;2023-12-20T21:14:14;1.35;;;1.25;;
10497;SDS011;5296;51.060;13.750;2023-12-20T21:19:16;1.10;;;1.00;;
10497;SDS011;5296;51.060;13.750;2023-12-20T21:24:18;1.10;;;1.00;;
10497;SDS011;5296;51.060;13.750;2023-12-20T21:29:19;1.10;;;1.00;;
10497;SDS011;5296;51.060;13.750;2023-12-20T21:34:21;1.45;;;1.10;;
10497;SDS011;5296;51.060;13.750;2023-12-20T21:39:23;1.20;;;1.10;;
10497;SDS011;5296;51.060;13.750;2023-12-20T21:44:27;1.55;;;1.25;;
10497;SDS011;5296;51.060;13.750;2023-12-20T21:49:28;1.27;;;1.17;;
10497;SDS011;5296;51.060;13.750;2023-12-20T21:54:30;1.13;;;1.10;;
10497;SDS011;5296;51.060;13.750;2023-12-20T21:59:32;1.80;;;1.30;;
10497;SDS011;5296;51.060;13.750;2023-12-20T22:04:36;1.60;;;1.00;;
10497;SDS011;5296;51.060;13.750;2023-12-20T22:09:38;1.10;;;1.00;;
10497;SDS011;5296;51.060;13.750;2023-12-20T22:14:39;2.47;;;0.90;;
10497;SDS011;5296;51.060;13.750;2023-12-20T22:19:41;1.00;;;0.90;;
10497;SDS011;5296;51.060;13.750;2023-12-20T22:24:43;1.00;;;0.80;;
10497;SDS011;5296;51.060;13.750;2023-12-20T22:29:45;1.02;;;0.70;;
10497;SDS011;5296;51.060;13.750;2023-12-20T22:34:47;0.80;;;0.80;;
10497;SDS011;5296;51.060;13.750;2023-12-20T22:39:49;1.38;;;0.73;;
10497;SDS011;5296;51.060;13.750;2023-12-20T22:44:52;1.87;;;0.90;;
10497;SDS011;5296;51.060;13.750;2023-12-20T22:49:56;0.80;;;0.80;;
10497;SDS011;5296;51.060;13.750;2023-12-20T22:54:58;1.83;;;0.70;;
10497;SDS011;5296;51.060;13.750;2023-12-20T23:00:00;1.00;;;0.80;;
10497;SDS011;5296;51.060;13.750;2023-12-20T23:05:03;0.80;;;0.80;;
10497;SDS011;5296;51.060;13.750;2023-12-20T23:10:05;0.80;;;0.80;;
10497;SDS011;5296;51.060;13.750;2023-12-20T23:15:08;0.98;;;0.80;;
10497;SDS011;5296;51.060;13.750;2023-12-20T23:20:10;1.17;;;1.00;;
10497;SDS011;5296;51.060;13.750;2023-12-20T23:25:12;0.80;;;0.80;;
10497;SDS011;5296;51.060;13.750;2023-12-20T23:30:13;1.10;;;0.90;;
10497;SDS011;5296;51.060;13.750;2023-12-20T23:35:15;1.63;;;0.80;;
10497;SDS011;5296;51.060;13.750;2023-12-20T23:40:17;1.95;;;1.00;;
10497;SDS011;5296;51.060;13.750;2023-12-20T23:45:19;0.75;;;0.75;;
10497;SDS011;5296;51.060;13.750;2023-12-20T23:50:21;0.70;;;0.70;;
10497;SDS011;5296;51.060;13.750;2023-12-20T23:55:23;1.00;;;1.00;;
